Belgrade, MN (56312)

4:09 PM CST on February 09, 2016 (GMT -0600)
Sibley | | Change Station
CLOSE
Current Station
Personal Weather Station
Location: New London, MN
Elevation: 1260 ft
Nearby Weather Stations

Elev 1260 ft 45.33 °N, 95.01 °W | Updated 19 minutes ago

Clear
Clear
18.5 °F
Feels Like 12 °F
N
4.2
Wind Variable Wind from NNW

Today
High -- | Low -- °F
--% Chance of Precip.
Yesterday
High -- | Low -- °F
Precip. -- in
Pressure 30.16 in
Visibility 10.0 miles
Clouds Clear
Windchill 12 °F
Dew Point 7 °F
Humidity 60%
Rainfall 0.00 in
Snow Depth Not available.
7:31 AM 5:37 PM
New Moon, 2% visible
METAR KPEX 092154Z AUTO 32008G17KT 10SM CLR M09/M16 A3016 RMK AO2 T10921160
Pressure 30.16 in
Visibility 10.0 miles
Clouds Clear
Windchill 12 °F
Dew Point 7 °F
Humidity 60%
Rainfall 0.00 in
Snow Depth Not available.
7:31 AM 5:37 PM
New Moon, 2% visible
METAR KPEX 092154Z AUTO 32008G17KT 10SM CLR M09/M16 A3016 RMK AO2 T10921160

10-Day Weather Forecast

Almanac

Astronomy

Feb. 09, 2016 Rise Set
Actual Time
Civil Twilight
Nautical Twilight
Astronomical Twilight
Moon
Length of Visible Light
Length of Day
Tomorrow will be .
, % of the Moon is Illuminated

Today's Extremes

State Highs State Lows

Community

WunderPhotos

Upload Photos

1,891,719 photos uploaded!

WunderBlog® & News

Nearby

Air Quality

  Air Quality AQ Index Pollutant
Not available.

Snow Depth

Station Depth Elevation

Earthquake Activity

City Distance Mag. Time & Date
Minimum magnitude displayed is 2.5.

Coastal Water Temperatures

Place Temperature

Stations

Nearby Weather Stations

Station Location Temp. Windchill Dew Point Humidity Wind Precip. Elev Updated Type
                   

Watches & Warnings

There are currently no watches in effect.